sensor_id;sensor_type;location;lat;lon;timestamp;temperature;humidity
19000;DHT22;9633;50.980;13.850;2022-11-25T00:01:27;1.70;99.90
19000;DHT22;9633;50.980;13.850;2022-11-25T00:03:02;1.70;99.90
19000;DHT22;9633;50.980;13.850;2022-11-25T00:04:35;1.80;99.90
19000;DHT22;9633;50.980;13.850;2022-11-25T00:06:11;1.80;99.90
19000;DHT22;9633;50.980;13.850;2022-11-25T00:07:44;1.80;99.90
19000;DHT22;9633;50.980;13.850;2022-11-25T00:09:18;1.80;99.90
19000;DHT22;9633;50.980;13.850;2022-11-25T00:10:52;1.80;99.90
19000;DHT22;9633;50.980;13.850;2022-11-25T00:12:24;1.80;99.90
19000;DHT22;9633;50.980;13.850;2022-11-25T00:13:57;1.90;99.90
19000;DHT22;9633;50.980;13.850;2022-11-25T00:15:30;1.90;99.90
19000;DHT22;9633;50.980;13.850;2022-11-25T00:17:02;2.00;99.90
19000;DHT22;9633;50.980;13.850;2022-11-25T00:18:36;2.10;99.90
19000;DHT22;9633;50.980;13.850;2022-11-25T00:20:09;2.10;99.90
19000;DHT22;9633;50.980;13.850;2022-11-25T00:21:43;2.00;99.90
19000;DHT22;9633;50.980;13.850;2022-11-25T00:23:16;2.10;99.90
19000;DHT22;9633;50.980;13.850;2022-11-25T00:24:50;2.30;99.90
19000;DHT22;9633;50.980;13.850;2022-11-25T00:26:24;2.40;99.90
19000;DHT22;9633;50.980;13.850;2022-11-25T00:27:58;2.50;99.90
19000;DHT22;9633;50.980;13.850;2022-11-25T00:29:32;2.40;99.90
19000;DHT22;9633;50.980;13.850;2022-11-25T00:31:06;2.50;99.90
19000;DHT22;9633;50.980;13.850;2022-11-25T00:32:39;2.60;99.90
19000;DHT22;9633;50.980;13.850;2022-11-25T00:34:13;2.60;99.90
19000;DHT22;9633;50.980;13.850;2022-11-25T00:35:46;2.80;99.90
19000;DHT22;9633;50.980;13.850;2022-11-25T00:37:20;2.90;99.90
19000;DHT22;9633;50.980;13.850;2022-11-25T00:38:54;2.90;99.90
19000;DHT22;9633;50.980;13.850;2022-11-25T00:40:28;3.00;99.90
19000;DHT22;9633;50.980;13.850;2022-11-25T00:42:01;3.00;99.90
19000;DHT22;9633;50.980;13.850;2022-11-25T00:43:48;3.30;99.90
19000;DHT22;9633;50.980;13.850;2022-11-25T00:45:39;3.40;99.90
19000;DHT22;9633;50.980;13.850;2022-11-25T00:47:14;3.50;99.90
19000;DHT22;9633;50.980;13.850;2022-11-25T00:48:47;3.70;99.90
19000;DHT22;9633;50.980;13.850;2022-11-25T00:50:20;3.80;99.90
19000;DHT22;9633;50.980;13.850;2022-11-25T00:51:54;3.80;99.90
19000;DHT22;9633;50.980;13.850;2022-11-25T00:53:26;3.80;99.90
19000;DHT22;9633;50.980;13.850;2022-11-25T00:54:59;3.80;99.90
19000;DHT22;9633;50.980;13.850;2022-11-25T00:56:34;3.80;99.90
19000;DHT22;9633;50.980;13.850;2022-11-25T00:58:06;3.80;99.90
19000;DHT22;9633;50.980;13.850;2022-11-25T00:59:39;3.90;99.90
19000;DHT22;9633;50.980;13.850;2022-11-25T01:01:12;3.90;99.90
19000;DHT22;9633;50.980;13.850;2022-11-25T01:02:45;4.00;99.90
19000;DHT22;9633;50.980;13.850;2022-11-25T01:04:19;4.00;99.90
19000;DHT22;9633;50.980;13.850;2022-11-25T01:05:53;4.10;99.90
19000;DHT22;9633;50.980;13.850;2022-11-25T01:07:25;4.10;99.90
19000;DHT22;9633;50.980;13.850;2022-11-25T01:08:59;4.10;99.90
19000;DHT22;9633;50.980;13.850;2022-11-25T01:10:33;4.20;99.90
19000;DHT22;9633;50.980;13.850;2022-11-25T01:12:07;4.20;99.90
19000;DHT22;9633;50.980;13.850;2022-11-25T01:13:40;4.10;99.90
19000;DHT22;9633;50.980;13.850;2022-11-25T01:15:13;4.10;99.90
19000;DHT22;9633;50.980;13.850;2022-11-25T01:16:46;4.10;99.90
19000;DHT22;9633;50.980;13.850;2022-11-25T01:18:19;4.10;99.90
19000;DHT22;9633;50.980;13.850;2022-11-25T01:19:51;4.10;99.90
19000;DHT22;9633;50.980;13.850;2022-11-25T01:21:26;4.10;99.90
19000;DHT22;9633;50.980;13.850;2022-11-25T01:22:59;4.10;99.90
19000;DHT22;9633;50.980;13.850;2022-11-25T01:24:32;4.00;99.90
19000;DHT22;9633;50.980;13.850;2022-11-25T01:26:07;3.90;99.90
19000;DHT22;9633;50.980;13.850;2022-11-25T01:27:42;3.80;99.90
19000;DHT22;9633;50.980;13.850;2022-11-25T01:29:16;3.70;99.90
19000;DHT22;9633;50.980;13.850;2022-11-25T01:30:58;3.60;99.90
19000;DHT22;9633;50.980;13.850;2022-11-25T01:32:31;3.60;99.90
19000;DHT22;9633;50.980;13.850;2022-11-25T01:34:06;3.70;99.90
19000;DHT22;9633;50.980;13.850;2022-11-25T01:35:39;3.90;99.90
19000;DHT22;9633;50.980;13.850;2022-11-25T01:37:13;4.00;99.90
19000;DHT22;9633;50.980;13.850;2022-11-25T01:38:49;4.00;99.90
19000;DHT22;9633;50.980;13.850;2022-11-25T01:40:22;4.00;99.90
19000;DHT22;9633;50.980;13.850;2022-11-25T01:41:55;4.00;99.90
19000;DHT22;9633;50.980;13.850;2022-11-25T01:43:29;4.00;99.90
19000;DHT22;9633;50.980;13.850;2022-11-25T01:45:32;3.70;99.90
19000;DHT22;9633;50.980;13.850;2022-11-25T01:47:11;3.50;99.90
19000;DHT22;9633;50.980;13.850;2022-11-25T01:48:49;3.40;99.90
19000;DHT22;9633;50.980;13.850;2022-11-25T01:50:23;3.30;99.90
19000;DHT22;9633;50.980;13.850;2022-11-25T01:52:02;3.10;99.90
19000;DHT22;9633;50.980;13.850;2022-11-25T01:53:37;3.10;99.90
19000;DHT22;9633;50.980;13.850;2022-11-25T01:55:14;3.00;99.90
19000;DHT22;9633;50.980;13.850;2022-11-25T01:56:51;3.00;99.90
19000;DHT22;9633;50.980;13.850;2022-11-25T01:58:31;3.00;99.90
19000;DHT22;9633;50.980;13.850;2022-11-25T02:00:07;2.90;99.90
19000;DHT22;9633;50.980;13.850;2022-11-25T02:01:51;3.00;99.90
19000;DHT22;9633;50.980;13.850;2022-11-25T02:03:28;3.00;99.90
19000;DHT22;9633;50.980;13.850;2022-11-25T02:05:07;2.80;99.90
19000;DHT22;9633;50.980;13.850;2022-11-25T02:06:45;2.70;99.90
19000;DHT22;9633;50.980;13.850;2022-11-25T02:08:19;2.70;99.90
19000;DHT22;9633;50.980;13.850;2022-11-25T02:09:55;2.70;99.90
19000;DHT22;9633;50.980;13.850;2022-11-25T02:11:29;2.60;99.90
19000;DHT22;9633;50.980;13.850;2022-11-25T02:13:03;2.60;99.90
19000;DHT22;9633;50.980;13.850;2022-11-25T02:14:41;2.50;99.90
19000;DHT22;9633;50.980;13.850;2022-11-25T02:16:15;2.60;99.90
19000;DHT22;9633;50.980;13.850;2022-11-25T02:17:48;2.80;99.90
19000;DHT22;9633;50.980;13.850;2022-11-25T02:19:24;2.90;99.90
19000;DHT22;9633;50.980;13.850;2022-11-25T02:20:59;3.10;99.90
19000;DHT22;9633;50.980;13.850;2022-11-25T02:22:46;3.20;99.90
19000;DHT22;9633;50.980;13.850;2022-11-25T02:24:27;3.30;99.90
19000;DHT22;9633;50.980;13.850;2022-11-25T02:26:04;3.40;99.90
19000;DHT22;9633;50.980;13.850;2022-11-25T02:27:37;3.40;99.90
19000;DHT22;9633;50.980;13.850;2022-11-25T02:29:09;3.30;99.90
19000;DHT22;9633;50.980;13.850;2022-11-25T02:30:43;3.40;99.90
19000;DHT22;9633;50.980;13.850;2022-11-25T02:32:20;3.40;99.90
19000;DHT22;9633;50.980;13.850;2022-11-25T02:33:52;3.50;99.90
19000;DHT22;9633;50.980;13.850;2022-11-25T02:35:28;3.50;99.90
19000;DHT22;9633;50.980;13.850;2022-11-25T02:37:01;3.50;99.90
19000;DHT22;9633;50.980;13.850;2022-11-25T02:38:37;3.60;99.90
19000;DHT22;9633;50.980;13.850;2022-11-25T02:40:12;3.60;99.90
19000;DHT22;9633;50.980;13.850;2022-11-25T02:41:50;3.70;99.90
19000;DHT22;9633;50.980;13.850;2022-11-25T02:43:25;3.70;99.90
19000;DHT22;9633;50.980;13.850;2022-11-25T02:44:58;3.70;99.90
19000;DHT22;9633;50.980;13.850;2022-11-25T02:46:30;3.90;99.90
19000;DHT22;9633;50.980;13.850;2022-11-25T02:48:06;3.90;99.90
19000;DHT22;9633;50.980;13.850;2022-11-25T02:49:38;4.00;99.90
19000;DHT22;9633;50.980;13.850;2022-11-25T02:51:12;4.00;99.90
19000;DHT22;9633;50.980;13.850;2022-11-25T02:52:46;4.00;99.90
19000;DHT22;9633;50.980;13.850;2022-11-25T02:54:19;4.10;99.90
19000;DHT22;9633;50.980;13.850;2022-11-25T02:55:53;4.10;99.90
19000;DHT22;9633;50.980;13.850;2022-11-25T02:57:27;4.00;99.90
19000;DHT22;9633;50.980;13.850;2022-11-25T02:59:01;4.00;99.90
19000;DHT22;9633;50.980;13.850;2022-11-25T03:00:35;4.00;99.90
19000;DHT22;9633;50.980;13.850;2022-11-25T03:02:08;4.10;99.90
19000;DHT22;9633;50.980;13.850;2022-11-25T03:03:42;4.00;99.90
19000;DHT22;9633;50.980;13.850;2022-11-25T03:05:15;4.10;99.90
19000;DHT22;9633;50.980;13.850;2022-11-25T03:06:48;4.00;99.90
19000;DHT22;9633;50.980;13.850;2022-11-25T03:08:21;4.00;99.90
19000;DHT22;9633;50.980;13.850;2022-11-25T03:09:55;4.00;99.90
19000;DHT22;9633;50.980;13.850;2022-11-25T03:11:28;4.00;99.90
19000;DHT22;9633;50.980;13.850;2022-11-25T03:13:17;4.00;99.90
19000;DHT22;9633;50.980;13.850;2022-11-25T03:14:50;3.90;99.90
19000;DHT22;9633;50.980;13.850;2022-11-25T03:16:22;4.00;99.90
19000;DHT22;9633;50.980;13.850;2022-11-25T03:17:55;4.00;99.90
19000;DHT22;9633;50.980;13.850;2022-11-25T03:19:28;4.00;99.90
19000;DHT22;9633;50.980;13.850;2022-11-25T03:21:01;4.00;99.90
19000;DHT22;9633;50.980;13.850;2022-11-25T03:22:34;4.00;99.90
19000;DHT22;9633;50.980;13.850;2022-11-25T03:24:08;4.00;99.90
19000;DHT22;9633;50.980;13.850;2022-11-25T03:25:41;4.00;99.90
19000;DHT22;9633;50.980;13.850;2022-11-25T03:27:14;4.00;99.90
19000;DHT22;9633;50.980;13.850;2022-11-25T03:28:48;3.90;99.90
19000;DHT22;9633;50.980;13.850;2022-11-25T03:30:22;3.90;99.90
19000;DHT22;9633;50.980;13.850;2022-11-25T03:32:00;3.80;99.90
19000;DHT22;9633;50.980;13.850;2022-11-25T03:33:38;3.90;99.90
19000;DHT22;9633;50.980;13.850;2022-11-25T03:35:12;3.90;99.90
19000;DHT22;9633;50.980;13.850;2022-11-25T03:36:47;3.90;99.90
19000;DHT22;9633;50.980;13.850;2022-11-25T03:38:19;3.90;99.90
19000;DHT22;9633;50.980;13.850;2022-11-25T03:39:52;3.90;99.90
19000;DHT22;9633;50.980;13.850;2022-11-25T03:41:25;3.90;99.90
19000;DHT22;9633;50.980;13.850;2022-11-25T03:42:58;3.90;99.90
19000;DHT22;9633;50.980;13.850;2022-11-25T03:44:33;3.90;99.90
19000;DHT22;9633;50.980;13.850;2022-11-25T03:46:05;3.80;99.90
19000;DHT22;9633;50.980;13.850;2022-11-25T03:47:39;3.80;99.90
19000;DHT22;9633;50.980;13.850;2022-11-25T03:49:13;3.70;99.90
19000;DHT22;9633;50.980;13.850;2022-11-25T03:50:47;3.80;99.90
19000;DHT22;9633;50.980;13.850;2022-11-25T03:52:20;3.70;99.90
19000;DHT22;9633;50.980;13.850;2022-11-25T03:53:53;3.70;99.90
19000;DHT22;9633;50.980;13.850;2022-11-25T03:55:27;3.70;99.90
19000;DHT22;9633;50.980;13.850;2022-11-25T03:57:00;3.80;99.90
19000;DHT22;9633;50.980;13.850;2022-11-25T03:58:33;3.80;99.90
19000;DHT22;9633;50.980;13.850;2022-11-25T04:00:10;3.90;99.90
19000;DHT22;9633;50.980;13.850;2022-11-25T04:01:55;3.90;99.90
19000;DHT22;9633;50.980;13.850;2022-11-25T04:03:28;3.90;99.90
19000;DHT22;9633;50.980;13.850;2022-11-25T04:05:03;3.90;99.90
19000;DHT22;9633;50.980;13.850;2022-11-25T04:06:36;3.80;99.90
19000;DHT22;9633;50.980;13.850;2022-11-25T04:08:10;3.80;99.90
19000;DHT22;9633;50.980;13.850;2022-11-25T04:09:43;3.80;99.90
19000;DHT22;9633;50.980;13.850;2022-11-25T04:11:20;3.80;99.90
19000;DHT22;9633;50.980;13.850;2022-11-25T04:12:59;3.80;99.90
19000;DHT22;9633;50.980;13.850;2022-11-25T04:14:38;3.80;99.90
19000;DHT22;9633;50.980;13.850;2022-11-25T04:16:20;3.80;99.90
19000;DHT22;9633;50.980;13.850;2022-11-25T04:17:56;3.80;99.90
19000;DHT22;9633;50.980;13.850;2022-11-25T04:19:29;3.80;99.90
19000;DHT22;9633;50.980;13.850;2022-11-25T04:21:02;3.70;99.90
19000;DHT22;9633;50.980;13.850;2022-11-25T04:22:37;3.60;99.90
19000;DHT22;9633;50.980;13.850;2022-11-25T04:24:10;3.60;99.90
19000;DHT22;9633;50.980;13.850;2022-11-25T04:25:44;3.50;99.90
19000;DHT22;9633;50.980;13.850;2022-11-25T04:27:24;3.50;99.90
19000;DHT22;9633;50.980;13.850;2022-11-25T04:28:58;3.50;99.90
19000;DHT22;9633;50.980;13.850;2022-11-25T04:30:32;3.50;99.90
19000;DHT22;9633;50.980;13.850;2022-11-25T04:32:08;3.50;99.90
19000;DHT22;9633;50.980;13.850;2022-11-25T04:33:42;3.50;99.90
19000;DHT22;9633;50.980;13.850;2022-11-25T04:35:22;3.50;99.90
19000;DHT22;9633;50.980;13.850;2022-11-25T04:36:58;3.40;99.90
19000;DHT22;9633;50.980;13.850;2022-11-25T04:38:32;3.40;99.90
19000;DHT22;9633;50.980;13.850;2022-11-25T04:40:07;3.40;99.90
19000;DHT22;9633;50.980;13.850;2022-11-25T04:41:40;3.30;99.90
19000;DHT22;9633;50.980;13.850;2022-11-25T04:43:14;3.20;99.90
19000;DHT22;9633;50.980;13.850;2022-11-25T04:44:53;3.20;99.90
19000;DHT22;9633;50.980;13.850;2022-11-25T04:46:47;3.10;99.90
19000;DHT22;9633;50.980;13.850;2022-11-25T04:48:21;3.10;99.90
19000;DHT22;9633;50.980;13.850;2022-11-25T04:49:55;3.10;99.90
19000;DHT22;9633;50.980;13.850;2022-11-25T04:51:28;3.00;99.90
19000;DHT22;9633;50.980;13.850;2022-11-25T04:53:05;3.00;99.90
19000;DHT22;9633;50.980;13.850;2022-11-25T04:54:37;3.00;99.90
19000;DHT22;9633;50.980;13.850;2022-11-25T04:56:16;3.00;99.90
19000;DHT22;9633;50.980;13.850;2022-11-25T04:57:50;3.00;99.90
19000;DHT22;9633;50.980;13.850;2022-11-25T04:59:24;3.00;99.90
19000;DHT22;9633;50.980;13.850;2022-11-25T05:01:13;3.00;99.90
19000;DHT22;9633;50.980;13.850;2022-11-25T05:02:49;2.90;99.90
19000;DHT22;9633;50.980;13.850;2022-11-25T05:04:25;2.80;99.90
19000;DHT22;9633;50.980;13.850;2022-11-25T05:05:58;2.70;99.90
19000;DHT22;9633;50.980;13.850;2022-11-25T05:07:32;2.60;99.90
19000;DHT22;9633;50.980;13.850;2022-11-25T05:09:06;2.60;99.90
19000;DHT22;9633;50.980;13.850;2022-11-25T05:10:43;2.60;99.90
19000;DHT22;9633;50.980;13.850;2022-11-25T05:12:19;2.60;99.90
19000;DHT22;9633;50.980;13.850;2022-11-25T05:13:53;2.50;99.90
19000;DHT22;9633;50.980;13.850;2022-11-25T05:15:26;2.40;99.90
19000;DHT22;9633;50.980;13.850;2022-11-25T05:16:59;2.30;99.90
19000;DHT22;9633;50.980;13.850;2022-11-25T05:18:33;2.30;99.90
19000;DHT22;9633;50.980;13.850;2022-11-25T05:20:09;2.30;99.90
19000;DHT22;9633;50.980;13.850;2022-11-25T05:21:42;2.20;99.90
19000;DHT22;9633;50.980;13.850;2022-11-25T05:23:15;2.20;99.90
19000;DHT22;9633;50.980;13.850;2022-11-25T05:24:48;2.30;99.90
19000;DHT22;9633;50.980;13.850;2022-11-25T05:26:23;2.20;99.90
19000;DHT22;9633;50.980;13.850;2022-11-25T05:27:59;2.10;99.90
19000;DHT22;9633;50.980;13.850;2022-11-25T05:29:32;2.20;99.90
19000;DHT22;9633;50.980;13.850;2022-11-25T05:31:06;2.20;99.90
19000;DHT22;9633;50.980;13.850;2022-11-25T05:32:39;2.20;99.90
19000;DHT22;9633;50.980;13.850;2022-11-25T05:34:14;2.30;99.90
19000;DHT22;9633;50.980;13.850;2022-11-25T05:35:57;2.20;99.90
19000;DHT22;9633;50.980;13.850;2022-11-25T05:37:36;2.20;99.90
19000;DHT22;9633;50.980;13.850;2022-11-25T05:39:10;2.10;99.90
19000;DHT22;9633;50.980;13.850;2022-11-25T05:41:18;1.90;99.90
19000;DHT22;9633;50.980;13.850;2022-11-25T05:42:51;1.80;99.90
19000;DHT22;9633;50.980;13.850;2022-11-25T05:44:25;1.80;99.90
19000;DHT22;9633;50.980;13.850;2022-11-25T05:46:02;1.80;99.90
19000;DHT22;9633;50.980;13.850;2022-11-25T05:47:36;1.70;99.90
19000;DHT22;9633;50.980;13.850;2022-11-25T05:49:10;1.70;99.90
19000;DHT22;9633;50.980;13.850;2022-11-25T05:50:43;1.70;99.90
19000;DHT22;9633;50.980;13.850;2022-11-25T05:52:26;1.70;99.90
19000;DHT22;9633;50.980;13.850;2022-11-25T05:54:02;1.70;99.90
19000;DHT22;9633;50.980;13.850;2022-11-25T05:55:37;1.70;99.90
19000;DHT22;9633;50.980;13.850;2022-11-25T05:57:18;1.60;99.90
19000;DHT22;9633;50.980;13.850;2022-11-25T05:58:58;1.50;99.90
19000;DHT22;9633;50.980;13.850;2022-11-25T06:00:44;1.30;99.90
19000;DHT22;9633;50.980;13.850;2022-11-25T06:02:18;1.30;99.90
19000;DHT22;9633;50.980;13.850;2022-11-25T06:03:51;1.30;99.90
19000;DHT22;9633;50.980;13.850;2022-11-25T06:05:24;1.30;99.90
19000;DHT22;9633;50.980;13.850;2022-11-25T06:06:57;1.50;99.90
19000;DHT22;9633;50.980;13.850;2022-11-25T06:08:32;1.60;99.90
19000;DHT22;9633;50.980;13.850;2022-11-25T06:10:07;1.50;99.90
19000;DHT22;9633;50.980;13.850;2022-11-25T06:11:42;1.30;99.90
19000;DHT22;9633;50.980;13.850;2022-11-25T06:13:15;1.20;99.90
19000;DHT22;9633;50.980;13.850;2022-11-25T06:14:50;1.20;99.90
19000;DHT22;9633;50.980;13.850;2022-11-25T06:16:24;1.20;99.90
19000;DHT22;9633;50.980;13.850;2022-11-25T06:18:07;1.20;99.90
19000;DHT22;9633;50.980;13.850;2022-11-25T06:19:41;1.00;99.90
19000;DHT22;9633;50.980;13.850;2022-11-25T06:21:15;1.00;99.90
19000;DHT22;9633;50.980;13.850;2022-11-25T06:22:48;0.90;99.90
19000;DHT22;9633;50.980;13.850;2022-11-25T06:24:28;0.80;99.90
19000;DHT22;9633;50.980;13.850;2022-11-25T06:26:09;0.70;99.90
19000;DHT22;9633;50.980;13.850;2022-11-25T06:27:43;0.70;99.90
19000;DHT22;9633;50.980;13.850;2022-11-25T06:29:37;0.70;99.90
19000;DHT22;9633;50.980;13.850;2022-11-25T06:31:11;0.70;99.90
19000;DHT22;9633;50.980;13.850;2022-11-25T06:32:54;0.70;99.90
19000;DHT22;9633;50.980;13.850;2022-11-25T06:34:28;0.70;99.90
19000;DHT22;9633;50.980;13.850;2022-11-25T06:36:02;0.70;99.90
19000;DHT22;9633;50.980;13.850;2022-11-25T06:37:36;0.70;99.90
19000;DHT22;9633;50.980;13.850;2022-11-25T06:39:09;0.70;99.90
19000;DHT22;9633;50.980;13.850;2022-11-25T06:40:44;0.70;99.90
19000;DHT22;9633;50.980;13.850;2022-11-25T06:42:17;0.70;99.90
19000;DHT22;9633;50.980;13.850;2022-11-25T06:43:50;0.70;99.90
19000;DHT22;9633;50.980;13.850;2022-11-25T06:45:23;0.70;99.90
19000;DHT22;9633;50.980;13.850;2022-11-25T06:46:56;0.60;99.90
19000;DHT22;9633;50.980;13.850;2022-11-25T06:48:29;0.60;99.90
19000;DHT22;9633;50.980;13.850;2022-11-25T06:50:03;0.70;99.90
19000;DHT22;9633;50.980;13.850;2022-11-25T06:51:36;0.70;99.90
19000;DHT22;9633;50.980;13.850;2022-11-25T06:53:10;0.70;99.90
19000;DHT22;9633;50.980;13.850;2022-11-25T06:54:43;0.70;99.90
19000;DHT22;9633;50.980;13.850;2022-11-25T06:56:18;0.80;99.90
19000;DHT22;9633;50.980;13.850;2022-11-25T06:57:52;0.90;99.90
19000;DHT22;9633;50.980;13.850;2022-11-25T06:59:45;1.00;99.90
19000;DHT22;9633;50.980;13.850;2022-11-25T07:01:20;1.00;99.90
19000;DHT22;9633;50.980;13.850;2022-11-25T07:02:53;1.10;99.90
19000;DHT22;9633;50.980;13.850;2022-11-25T07:04:27;1.20;99.90
19000;DHT22;9633;50.980;13.850;2022-11-25T07:06:00;1.20;99.90
19000;DHT22;9633;50.980;13.850;2022-11-25T07:07:33;1.20;99.90
19000;DHT22;9633;50.980;13.850;2022-11-25T07:09:07;1.20;99.90
19000;DHT22;9633;50.980;13.850;2022-11-25T07:10:40;1.20;99.90
19000;DHT22;9633;50.980;13.850;2022-11-25T07:12:14;1.30;99.90
19000;DHT22;9633;50.980;13.850;2022-11-25T07:13:50;1.30;99.90
19000;DHT22;9633;50.980;13.850;2022-11-25T07:15:24;1.50;99.90
19000;DHT22;9633;50.980;13.850;2022-11-25T07:16:57;1.50;99.90
19000;DHT22;9633;50.980;13.850;2022-11-25T07:18:31;1.60;99.90
19000;DHT22;9633;50.980;13.850;2022-11-25T07:20:06;1.60;99.90
19000;DHT22;9633;50.980;13.850;2022-11-25T07:21:40;1.70;99.90
19000;DHT22;9633;50.980;13.850;2022-11-25T07:23:14;1.80;99.90
19000;DHT22;9633;50.980;13.850;2022-11-25T07:24:47;1.90;99.90
19000;DHT22;9633;50.980;13.850;2022-11-25T07:26:22;1.90;99.90
19000;DHT22;9633;50.980;13.850;2022-11-25T07:27:57;2.00;99.90
19000;DHT22;9633;50.980;13.850;2022-11-25T07:29:30;2.10;99.90
19000;DHT22;9633;50.980;13.850;2022-11-25T07:31:25;2.10;99.90
19000;DHT22;9633;50.980;13.850;2022-11-25T07:33:03;2.10;99.90
19000;DHT22;9633;50.980;13.850;2022-11-25T07:34:36;2.20;99.90
19000;DHT22;9633;50.980;13.850;2022-11-25T07:36:11;2.20;99.90
19000;DHT22;9633;50.980;13.850;2022-11-25T07:37:44;2.30;99.90
19000;DHT22;9633;50.980;13.850;2022-11-25T07:39:20;2.40;99.90
19000;DHT22;9633;50.980;13.850;2022-11-25T07:40:53;2.40;99.90
19000;DHT22;9633;50.980;13.850;2022-11-25T07:42:26;2.40;99.90
19000;DHT22;9633;50.980;13.850;2022-11-25T07:44:02;2.50;99.90
19000;DHT22;9633;50.980;13.850;2022-11-25T07:45:47;2.50;99.90
19000;DHT22;9633;50.980;13.850;2022-11-25T07:47:20;2.50;99.90
19000;DHT22;9633;50.980;13.850;2022-11-25T07:48:54;2.50;99.90
19000;DHT22;9633;50.980;13.850;2022-11-25T07:50:27;2.50;99.90
19000;DHT22;9633;50.980;13.850;2022-11-25T07:52:00;2.50;99.90
19000;DHT22;9633;50.980;13.850;2022-11-25T07:53:35;2.50;99.90
19000;DHT22;9633;50.980;13.850;2022-11-25T07:55:08;2.60;99.90
19000;DHT22;9633;50.980;13.850;2022-11-25T07:56:42;2.60;99.90
19000;DHT22;9633;50.980;13.850;2022-11-25T07:58:16;2.70;99.90
19000;DHT22;9633;50.980;13.850;2022-11-25T07:59:51;2.80;99.90
19000;DHT22;9633;50.980;13.850;2022-11-25T08:01:24;2.90;99.90
19000;DHT22;9633;50.980;13.850;2022-11-25T08:02:57;3.00;99.90
19000;DHT22;9633;50.980;13.850;2022-11-25T08:04:30;3.00;99.90
19000;DHT22;9633;50.980;13.850;2022-11-25T08:06:05;3.10;99.90
19000;DHT22;9633;50.980;13.850;2022-11-25T08:07:38;3.10;99.90
19000;DHT22;9633;50.980;13.850;2022-11-25T08:09:13;3.10;99.90
19000;DHT22;9633;50.980;13.850;2022-11-25T08:10:47;3.20;99.90
19000;DHT22;9633;50.980;13.850;2022-11-25T08:12:20;3.30;99.90
19000;DHT22;9633;50.980;13.850;2022-11-25T08:13:53;3.40;99.90
19000;DHT22;9633;50.980;13.850;2022-11-25T08:15:28;3.40;99.90
19000;DHT22;9633;50.980;13.850;2022-11-25T08:17:01;3.40;99.90
19000;DHT22;9633;50.980;13.850;2022-11-25T08:18:36;3.50;99.90
19000;DHT22;9633;50.980;13.850;2022-11-25T08:20:10;3.50;99.90
19000;DHT22;9633;50.980;13.850;2022-11-25T08:21:43;3.50;99.90
19000;DHT22;9633;50.980;13.850;2022-11-25T08:23:18;3.60;99.90
19000;DHT22;9633;50.980;13.850;2022-11-25T08:24:51;3.60;99.90
19000;DHT22;9633;50.980;13.850;2022-11-25T08:26:26;3.60;99.90
19000;DHT22;9633;50.980;13.850;2022-11-25T08:28:01;3.50;99.90
19000;DHT22;9633;50.980;13.850;2022-11-25T08:29:34;3.40;99.90
19000;DHT22;9633;50.980;13.850;2022-11-25T08:31:10;3.40;99.90
19000;DHT22;9633;50.980;13.850;2022-11-25T08:32:44;3.40;99.90
19000;DHT22;9633;50.980;13.850;2022-11-25T08:34:19;3.30;99.90
19000;DHT22;9633;50.980;13.850;2022-11-25T08:35:55;3.40;99.90
19000;DHT22;9633;50.980;13.850;2022-11-25T08:37:30;3.40;99.90
19000;DHT22;9633;50.980;13.850;2022-11-25T08:39:05;3.40;99.90
19000;DHT22;9633;50.980;13.850;2022-11-25T08:40:59;3.40;99.90
19000;DHT22;9633;50.980;13.850;2022-11-25T08:42:32;3.50;99.90
19000;DHT22;9633;50.980;13.850;2022-11-25T08:44:07;3.50;99.90
19000;DHT22;9633;50.980;13.850;2022-11-25T08:45:40;3.50;99.90
19000;DHT22;9633;50.980;13.850;2022-11-25T08:47:15;3.50;99.90
19000;DHT22;9633;50.980;13.850;2022-11-25T08:48:48;3.60;99.90
19000;DHT22;9633;50.980;13.850;2022-11-25T08:50:21;3.60;99.90
19000;DHT22;9633;50.980;13.850;2022-11-25T08:51:56;3.60;99.90
19000;DHT22;9633;50.980;13.850;2022-11-25T08:53:29;3.60;99.90
19000;DHT22;9633;50.980;13.850;2022-11-25T08:55:03;3.60;99.90
19000;DHT22;9633;50.980;13.850;2022-11-25T08:56:36;3.60;99.90
19000;DHT22;9633;50.980;13.850;2022-11-25T08:58:09;3.70;99.90
19000;DHT22;9633;50.980;13.850;2022-11-25T08:59:43;3.70;99.90
19000;DHT22;9633;50.980;13.850;2022-11-25T09:01:18;3.80;99.90
19000;DHT22;9633;50.980;13.850;2022-11-25T09:02:52;3.80;99.90
19000;DHT22;9633;50.980;13.850;2022-11-25T09:04:26;3.90;99.90
19000;DHT22;9633;50.980;13.850;2022-11-25T09:05:59;3.80;99.90
19000;DHT22;9633;50.980;13.850;2022-11-25T09:07:32;3.90;99.90
19000;DHT22;9633;50.980;13.850;2022-11-25T09:09:05;3.90;99.90
19000;DHT22;9633;50.980;13.850;2022-11-25T09:10:39;3.90;99.90
19000;DHT22;9633;50.980;13.850;2022-11-25T09:12:12;3.90;99.90
19000;DHT22;9633;50.980;13.850;2022-11-25T09:13:45;3.90;99.90
19000;DHT22;9633;50.980;13.850;2022-11-25T09:15:19;3.90;99.90
19000;DHT22;9633;50.980;13.850;2022-11-25T09:16:52;4.00;99.90
19000;DHT22;9633;50.980;13.850;2022-11-25T09:18:29;4.10;99.90
19000;DHT22;9633;50.980;13.850;2022-11-25T09:20:04;4.30;99.90
19000;DHT22;9633;50.980;13.850;2022-11-25T09:21:37;4.60;99.90
19000;DHT22;9633;50.980;13.850;2022-11-25T09:23:10;4.70;99.90
19000;DHT22;9633;50.980;13.850;2022-11-25T09:24:43;4.90;99.90
19000;DHT22;9633;50.980;13.850;2022-11-25T09:26:21;5.10;99.90
19000;DHT22;9633;50.980;13.850;2022-11-25T09:27:55;5.30;99.90
19000;DHT22;9633;50.980;13.850;2022-11-25T09:29:28;5.50;99.90
19000;DHT22;9633;50.980;13.850;2022-11-25T09:31:06;5.60;99.90
19000;DHT22;9633;50.980;13.850;2022-11-25T09:32:39;5.50;99.90
19000;DHT22;9633;50.980;13.850;2022-11-25T09:34:14;5.30;99.90
19000;DHT22;9633;50.980;13.850;2022-11-25T09:35:47;5.20;99.90
19000;DHT22;9633;50.980;13.850;2022-11-25T09:37:21;5.10;99.90
19000;DHT22;9633;50.980;13.850;2022-11-25T09:38:54;5.10;99.90
19000;DHT22;9633;50.980;13.850;2022-11-25T09:40:33;5.20;99.90
19000;DHT22;9633;50.980;13.850;2022-11-25T09:42:20;5.30;99.90
19000;DHT22;9633;50.980;13.850;2022-11-25T09:44:22;5.30;99.90
19000;DHT22;9633;50.980;13.850;2022-11-25T09:46:25;5.50;99.90
19000;DHT22;9633;50.980;13.850;2022-11-25T09:50:33;6.50;99.90
19000;DHT22;9633;50.980;13.850;2022-11-25T09:52:12;6.80;99.90
19000;DHT22;9633;50.980;13.850;2022-11-25T09:53:52;7.00;99.90
19000;DHT22;9633;50.980;13.850;2022-11-25T09:55:30;7.40;99.90
19000;DHT22;9633;50.980;13.850;2022-11-25T09:57:17;7.50;99.90
19000;DHT22;9633;50.980;13.850;2022-11-25T09:58:55;7.70;99.90
19000;DHT22;9633;50.980;13.850;2022-11-25T10:00:36;8.00;99.90
19000;DHT22;9633;50.980;13.850;2022-11-25T10:02:13;8.00;99.90
19000;DHT22;9633;50.980;13.850;2022-11-25T10:03:51;8.30;99.90
19000;DHT22;9633;50.980;13.850;2022-11-25T10:05:28;8.50;99.90
19000;DHT22;9633;50.980;13.850;2022-11-25T10:07:07;8.80;99.90
19000;DHT22;9633;50.980;13.850;2022-11-25T10:08:42;8.90;99.90
19000;DHT22;9633;50.980;13.850;2022-11-25T10:10:21;8.90;99.90
19000;DHT22;9633;50.980;13.850;2022-11-25T10:11:57;9.10;99.90
19000;DHT22;9633;50.980;13.850;2022-11-25T10:13:37;9.30;99.90
19000;DHT22;9633;50.980;13.850;2022-11-25T10:15:19;9.40;99.90